• Join FlightAware (Why Join?)
  • Login
  • US Flag 
11:25AM EDT


 

Airport Tracker/Info


-or-


 

Live Flight TrackerFlight Track Log ✈ UAL4625 ✈ 20-Apr-2013 ✈ KEWR - KCHS

Flight Track Log - Related Links

Times and Time Zones

All times are in EDT time to prevent confusion due to time zone crossing. See the UAL4625 flight status page for this flight to view local times or setup timezone preferences in your user account.

Time Position Orientation Groundspeed Altitude Reporting Facility
EDT Latitude Longitude Course Direction KTS MPH feet Rate Location/Type
08:27AM 40.6667 -74.1833 194° South 181 208 1,100  Level New York TRACON
08:28AM 40.6167 -74.2000 194° South 219 252 2,700 1,860 Climbing New York TRACON
08:29AM 40.5500 -74.2667 217° Southwest 239 275 4,700 1,560 Climbing New York TRACON
08:30AM 40.3742 -74.1871 159° South  Level FlightAware Approximate
08:30AM 40.4833 -74.2500 169° South 273 314 5,900  Level New York TRACON
08:31AM 40.2938 -74.1521 194° South  Level FlightAware Approximate
08:32AM 40.2106 -74.1798 194° South  Level FlightAware Approximate
08:32AM 40.3536 -74.1183 142° Southeast 261 300 6,600  Level New York Center
08:33AM 40.2933 -74.0472 138° Southeast 280 322 9,300 2,340 Climbing New York Center
08:34AM 40.2300 -74.0686 194° South 217 250 11,400 1,560 Climbing New York Center
08:37AM 40.0556 -74.2119 212° Southwest 296 341 14,900 1,500 Climbing Washington Center
08:38AM 39.9853 -74.2700 212° Southwest 302 348 16,800 1,860 Climbing Washington Center
08:39AM 39.9214 -74.3336 217° Southwest 302 348 18,700 1,800 Climbing Washington Center
08:40AM 39.8556 -74.3969 216° Southwest 302 348 20,400 1,620 Climbing Washington Center
08:41AM 39.7956 -74.4628 220° Southwest 297 342 22,000 1,500 Climbing Washington Center
08:42AM 39.7400 -74.5364 226° Southwest 297 342 23,400 960 Climbing Washington Center
08:43AM 39.6947 -74.5964 226° Southwest 292 336 24,000 300 Climbing Washington Center
08:44AM 39.6289 -74.6808 225° Southwest 292 336 24,000  Level Washington Center
08:45AM 39.5711 -74.7569 225° Southwest 297 342 24,000 420 Level Washington Center
08:46AM 39.5153 -74.8331 226° Southwest 297 342 24,900 900 Climbing Washington Center
08:47AM 39.4553 -74.9089 224° Southwest 297 342 25,900 540 Climbing Washington Center
08:48AM 39.3972 -74.9847 225° Southwest 302 348 26,000 480 Climbing Washington Center
08:49AM 39.3372 -75.0656 226° Southwest 307 353 26,900 900 Climbing Washington Center
08:50AM 39.2708 -75.1278 216° Southwest 307 353 27,800 540 Climbing Washington Center
08:51AM 39.1897 -75.1631 199° South 301 346 28,000 300 Climbing Washington Center
08:52AM 39.1128 -75.2225 211° Southwest 307 353 28,500 660 Climbing Washington Center
08:53AM 39.0400 -75.2789 211° Southwest 313 360 29,400 900 Climbing Washington Center
08:54AM 38.9650 -75.3381 212° Southwest 313 360 30,400 960 Climbing Washington Center
08:55AM 38.8903 -75.3864 207° Southwest 313 360 31,400 960 Climbing Washington Center
08:56AM 38.8172 -75.4531 215° Southwest 313 360 32,400 1,080 Climbing Washington Center
08:57AM 38.7444 -75.5064 210° Southwest 313 360 33,600 1,200 Climbing Washington Center
08:58AM 38.6714 -75.5625 211° Southwest 313 360 34,800 1,140 Climbing Washington Center
08:59AM 38.6047 -75.6183 213° Southwest 313 360 35,900 600 Climbing Washington Center
09:00AM 38.5317 -75.6661 207° Southwest 307 353 36,000  Climbing Washington Center
09:01AM 38.4628 -75.7242 213° Southwest 302 348 36,000  Level Washington Center
09:02AM 38.3919 -75.7719 208° Southwest 296 341 36,000  Level Washington Center
09:03AM 38.3167 -75.8272 210° Southwest 296 341 36,000  Level Washington Center
09:04AM 38.2458 -75.8853 213° Southwest 301 346 36,000  Level Washington Center
09:05AM 38.1706 -75.9378 209° Southwest 307 353 36,000  Level Washington Center
09:06AM 38.0994 -75.9956 213° Southwest 307 353 36,000  Level Washington Center
09:07AM 38.0158 -76.0556 209° Southwest 317 365 36,000  Level Washington Center
09:08AM 37.9447 -76.1106 211° Southwest 311 358 36,000  Level Washington Center
09:09AM 37.8714 -76.1653 211° Southwest 311 358 36,000  Level Washington Center
09:10AM 37.7983 -76.2200 211° Southwest 311 358 36,000  Level Washington Center
09:11AM 37.7250 -76.2717 209° Southwest 311 358 36,000  Level Washington Center
09:12AM 37.6517 -76.3261 210° Southwest 316 364 36,000  Level Washington Center
09:13AM 37.5761 -76.3831 211° Southwest 316 364 36,000  Level Washington Center
09:14AM 37.5028 -76.4372 210° Southwest 316 364 36,000  Level Washington Center
09:15AM 37.4294 -76.4889 209° Southwest 316 364 36,000  Level Washington Center
09:16AM 37.3561 -76.5428 210° Southwest 316 364 36,000  Level Washington Center
09:17AM 37.2806 -76.5994 211° Southwest 316 364 36,000  Level Washington Center
09:18AM 37.2050 -76.6558 211° Southwest 316 364 36,000  Level Washington Center
09:19AM 37.1294 -76.7094 210° Southwest 316 364 36,000  Level Washington Center
09:20AM 37.0536 -76.7656 211° Southwest 316 364 36,000  Level Washington Center
09:21AM 36.9781 -76.8217 211° Southwest 316 364 36,000  Level Washington Center
09:22AM 36.9022 -76.8775 210° Southwest 316 364 36,000  Level Washington Center
09:23AM 36.8267 -76.9308 209° Southwest 316 364 36,000  Level Washington Center
09:24AM 36.7508 -76.9867 211° Southwest 316 364 36,000  Level Washington Center
09:25AM 36.6772 -77.0475 214° Southwest 316 364 36,000  Level Washington Center
09:26AM 36.6053 -77.1133 216° Southwest 321 369 36,000  Level Washington Center
09:27AM 36.5378 -77.1792 218° Southwest 326 375 36,000  Level Washington Center
09:28AM 36.4658 -77.2500 218° Southwest 321 369 36,000  Level Washington Center
09:29AM 36.3942 -77.3131 215° Southwest 321 369 36,000  Level Washington Center
09:30AM 36.3242 -77.3811 218° Southwest 321 369 36,000  Level Washington Center
09:31AM 36.2522 -77.4464 216° Southwest 321 369 36,000  Level Washington Center
09:32AM 36.1908 -77.5094 220° Southwest 316 364 36,000  Level Washington Center
09:33AM 36.1189 -77.5744 216° Southwest 321 369 36,000  Level Washington Center
09:34AM 36.0467 -77.6394 216° Southwest 321 369 36,000  Level Washington Center
09:35AM 35.9747 -77.7069 217° Southwest 321 369 36,000  Level Washington Center
09:36AM 35.8986 -77.7664 212° Southwest 321 369 36,000  Level Washington Center
09:37AM 35.8222 -77.8283 213° Southwest 327 376 36,000  Level Washington Center
09:38AM 35.7461 -77.8878 212° Southwest 332 382 36,000  Level Washington Center
09:39AM 35.6697 -77.9467 212° Southwest 332 382 36,000  Level Washington Center
09:40AM 35.5933 -78.0058 212° Southwest 332 382 36,000  Level Washington Center
09:41AM 35.5150 -78.0672 213° Southwest 332 382 36,000  Level Washington Center
09:42AM 35.4303 -78.1308 211° Southwest 332 382 36,000  Level Washington Center
09:43AM 35.3517 -78.1922 212° Southwest 332 382 36,000  Level Washington Center
09:44AM 35.2753 -78.2506 212° Southwest 332 382 36,000 -180 Level Washington Center
09:45AM 35.1967 -78.3117 212° Southwest 332 382 35,700 -900 Descending Washington Center
09:46AM 35.1203 -78.3700 212° Southwest 332 382 34,300 -1,740 Descending Washington Center
09:47AM 35.0436 -78.4308 213° Southwest 332 382 32,300 -1,980 Descending Washington Center
09:48AM 34.9608 -78.4939 212° Southwest 338 389 30,400 -1,980 Descending Washington Center
09:49AM 34.8819 -78.5567 213° Southwest 344 396 28,400 -1,200 Descending Washington Center
09:50AM 34.8161 -78.6050 211° Southwest 349 402 28,000 -180 Descending Washington Center
09:52AM 34.6358 -78.7392 211° Southwest 367 422 28,000  Level Jacksonville Center
09:53AM 34.5525 -78.8061 213° Southwest 362 417 28,000  Level Jacksonville Center
09:54AM 34.4692 -78.8731 214° Southwest 362 417 28,000  Level Jacksonville Center
09:55AM 34.3858 -78.9400 214° Southwest 362 417 28,000 -600 Level Jacksonville Center
09:56AM 34.3000 -79.0017 211° Southwest 362 417 26,900 -1,380 Descending Jacksonville Center
09:57AM 34.2078 -79.0536 205° Southwest 357 411 25,300 -1,560 Descending Jacksonville Center
09:58AM 34.1131 -79.0953 200° South 363 418 23,800 -1,560 Descending Jacksonville Center
09:59AM 34.0183 -79.1394 201° Southwest 368 423 22,200 -1,680 Descending Jacksonville Center
10:00AM 33.9258 -79.1783 199° South 368 423 20,500 -2,160 Descending Jacksonville Center
10:01AM 33.8392 -79.2172 200° South 358 412 17,900 -2,460 Descending Jacksonville Center
10:02AM 33.7589 -79.2581 203° Southwest 336 387 15,600 -2,100 Descending Jacksonville Center
10:03AM 33.6794 -79.3186 212° Southwest 321 369 13,800 -1,680 Descending Jacksonville Center
10:04AM 33.6017 -79.3792 213° Southwest 321 369 12,300 -1,380 Descending Jacksonville Center
10:05AM 33.5261 -79.4344 211° Southwest 326 375 11,100 -660 Descending Jacksonville Center
10:06AM 33.4544 -79.4869 211° Southwest 319 367 11,000 -60 Descending Jacksonville Center
10:07AM 33.3808 -79.5444 213° Southwest 313 360 11,000  Level Jacksonville Center
10:08AM 33.3072 -79.5994 212° Southwest 319 367 11,000 -180 Level Jacksonville Center
10:09AM 33.2333 -79.6469 208° Southwest 308 354 10,700 -900 Descending Jacksonville Center
10:10AM 33.1650 -79.6717 197° South 292 336 9,200 -1,620 Descending Jacksonville Center
10:11AM 33.0989 -79.6964 197° South 272 313 7,500 -1,620 Descending Jacksonville Center
10:12AM 33.0306 -79.7211 197° South 260 299 6,000 -1,260 Descending Jacksonville Center
10:13AM 32.9644 -79.7483 199° South 260 299 5,000 -540 Descending Jacksonville Center
10:14AM 32.9006 -79.7778 201° Southwest 260 299 5,000  Level Jacksonville Center
10:15AM 32.8364 -79.8022 198° South 255 293 5,000  Level Jacksonville Center
10:17AM 32.8786 -79.9637 287° West  Level Estimated
10:24AM 32.8986 -80.0405 287° West  Level Estimated
10:25AM 32.8986 -80.0405 121° Southeast  Level Estimated
10:26AM 32.8986 -80.0405 121° Southeast  Level Estimated